Terminal Aerodrome Forecast
Issued by NWS

Home | Current Version | Previous Version | Text Only | Print | Product List | Glossary On
Versions: 1 2 3 4 5 6 7 8 9 10 11 12 13
067
FTUS42 TJSJ 022342
TAFJSJ
TAF
TJSJ 022342Z 0300/0324 10005KT P6SM FEW025 SCT040
     FM031300 06010KT P6SM FEW030 SCT050
     FM032300 10005KT P6SM SCT025=

USA.gov is the U.S. government's official web portal to all federal, state and local government web resources and services.